sensor_id;sensor_type;location;lat;lon;timestamp;temperature;humidity
57660;DHT22;43485;45.680;15.702;2024-01-30T00:02:14;-0.90;65.70
57660;DHT22;43485;45.680;15.702;2024-01-30T00:04:40;-1.00;66.00
57660;DHT22;43485;45.680;15.702;2024-01-30T00:07:06;-0.90;66.00
57660;DHT22;43485;45.680;15.702;2024-01-30T00:09:33;-1.00;65.90
57660;DHT22;43485;45.680;15.702;2024-01-30T00:11:59;-1.00;66.00
57660;DHT22;43485;45.680;15.702;2024-01-30T00:14:25;-1.00;66.00
57660;DHT22;43485;45.680;15.702;2024-01-30T00:16:51;-1.10;66.00
57660;DHT22;43485;45.680;15.702;2024-01-30T00:19:17;-1.10;66.10
57660;DHT22;43485;45.680;15.702;2024-01-30T00:21:43;-1.10;66.40
57660;DHT22;43485;45.680;15.702;2024-01-30T00:24:09;-1.10;66.40
57660;DHT22;43485;45.680;15.702;2024-01-30T00:26:35;-1.20;65.50
57660;DHT22;43485;45.680;15.702;2024-01-30T00:29:03;-1.10;66.80
57660;DHT22;43485;45.680;15.702;2024-01-30T00:31:29;-1.10;66.40
57660;DHT22;43485;45.680;15.702;2024-01-30T00:33:55;-1.10;66.70
57660;DHT22;43485;45.680;15.702;2024-01-30T00:36:21;-1.20;66.20
57660;DHT22;43485;45.680;15.702;2024-01-30T00:38:47;-1.30;66.50
57660;DHT22;43485;45.680;15.702;2024-01-30T00:41:13;-1.30;66.70
57660;DHT22;43485;45.680;15.702;2024-01-30T00:43:40;-1.30;66.70
57660;DHT22;43485;45.680;15.702;2024-01-30T00:46:06;-1.30;66.50
57660;DHT22;43485;45.680;15.702;2024-01-30T00:48:32;-1.30;66.30
57660;DHT22;43485;45.680;15.702;2024-01-30T00:50:58;-1.30;66.30
57660;DHT22;43485;45.680;15.702;2024-01-30T00:53:24;-1.30;66.50
57660;DHT22;43485;45.680;15.702;2024-01-30T00:55:50;-1.30;66.40
57660;DHT22;43485;45.680;15.702;2024-01-30T00:58:16;-1.30;66.50
57660;DHT22;43485;45.680;15.702;2024-01-30T01:00:44;-1.40;66.30
57660;DHT22;43485;45.680;15.702;2024-01-30T01:03:10;-1.40;66.40
57660;DHT22;43485;45.680;15.702;2024-01-30T01:05:36;-1.40;66.60
57660;DHT22;43485;45.680;15.702;2024-01-30T01:08:03;-1.50;66.50
57660;DHT22;43485;45.680;15.702;2024-01-30T01:10:29;-1.60;65.90
57660;DHT22;43485;45.680;15.702;2024-01-30T01:12:55;-1.50;66.60
57660;DHT22;43485;45.680;15.702;2024-01-30T01:15:21;-1.50;66.30
57660;DHT22;43485;45.680;15.702;2024-01-30T01:17:47;-1.60;66.30
57660;DHT22;43485;45.680;15.702;2024-01-30T01:20:13;-1.60;67.20
57660;DHT22;43485;45.680;15.702;2024-01-30T01:22:39;-1.70;66.70
57660;DHT22;43485;45.680;15.702;2024-01-30T01:25:06;-1.70;66.70
57660;DHT22;43485;45.680;15.702;2024-01-30T01:27:33;-1.70;66.70
57660;DHT22;43485;45.680;15.702;2024-01-30T01:30:00;-1.70;66.70
57660;DHT22;43485;45.680;15.702;2024-01-30T01:32:26;-1.70;65.40
57660;DHT22;43485;45.680;15.702;2024-01-30T01:34:52;-1.80;65.90
57660;DHT22;43485;45.680;15.702;2024-01-30T01:37:19;-1.80;66.00
57660;DHT22;43485;45.680;15.702;2024-01-30T01:39:47;-1.80;65.90
57660;DHT22;43485;45.680;15.702;2024-01-30T01:42:13;-1.90;66.40
57660;DHT22;43485;45.680;15.702;2024-01-30T01:44:39;-1.80;66.10
57660;DHT22;43485;45.680;15.702;2024-01-30T01:47:06;-1.90;66.30
57660;DHT22;43485;45.680;15.702;2024-01-30T01:49:32;-1.90;66.10
57660;DHT22;43485;45.680;15.702;2024-01-30T01:51:58;-1.90;65.40
57660;DHT22;43485;45.680;15.702;2024-01-30T01:54:25;-2.00;65.70
57660;DHT22;43485;45.680;15.702;2024-01-30T01:56:53;-2.00;65.70
57660;DHT22;43485;45.680;15.702;2024-01-30T01:59:20;-2.00;65.80
57660;DHT22;43485;45.680;15.702;2024-01-30T02:01:47;-2.00;65.70
57660;DHT22;43485;45.680;15.702;2024-01-30T02:04:32;-2.00;65.20
57660;DHT22;43485;45.680;15.702;2024-01-30T02:06:58;-2.00;65.70
57660;DHT22;43485;45.680;15.702;2024-01-30T02:09:24;-2.00;65.10
57660;DHT22;43485;45.680;15.702;2024-01-30T02:11:51;-2.00;65.70
57660;DHT22;43485;45.680;15.702;2024-01-30T02:14:17;-2.00;65.90
57660;DHT22;43485;45.680;15.702;2024-01-30T02:16:43;-2.10;65.80
57660;DHT22;43485;45.680;15.702;2024-01-30T02:19:09;-2.10;65.90
57660;DHT22;43485;45.680;15.702;2024-01-30T02:21:35;-2.10;66.20
57660;DHT22;43485;45.680;15.702;2024-01-30T02:24:01;-2.20;66.40
57660;DHT22;43485;45.680;15.702;2024-01-30T02:26:28;-2.20;66.50
57660;DHT22;43485;45.680;15.702;2024-01-30T02:28:54;-2.20;66.60
57660;DHT22;43485;45.680;15.702;2024-01-30T02:31:20;-2.10;66.60
57660;DHT22;43485;45.680;15.702;2024-01-30T02:33:46;-2.10;66.40
57660;DHT22;43485;45.680;15.702;2024-01-30T02:36:12;-2.10;66.50
57660;DHT22;43485;45.680;15.702;2024-01-30T02:38:41;-2.10;66.50
57660;DHT22;43485;45.680;15.702;2024-01-30T02:41:07;-2.10;66.50
57660;DHT22;43485;45.680;15.702;2024-01-30T02:43:33;-2.10;66.50
57660;DHT22;43485;45.680;15.702;2024-01-30T02:45:59;-2.10;66.90
57660;DHT22;43485;45.680;15.702;2024-01-30T02:48:26;-2.10;67.10
57660;DHT22;43485;45.680;15.702;2024-01-30T02:50:52;-2.10;66.60
57660;DHT22;43485;45.680;15.702;2024-01-30T02:53:18;-2.20;66.10
57660;DHT22;43485;45.680;15.702;2024-01-30T02:55:44;-2.20;66.20
57660;DHT22;43485;45.680;15.702;2024-01-30T02:58:10;-2.30;66.30
57660;DHT22;43485;45.680;15.702;2024-01-30T03:00:36;-2.30;66.20
57660;DHT22;43485;45.680;15.702;2024-01-30T03:03:02;-2.30;66.20
57660;DHT22;43485;45.680;15.702;2024-01-30T03:05:29;-2.30;66.40
57660;DHT22;43485;45.680;15.702;2024-01-30T03:07:55;-2.30;66.30
57660;DHT22;43485;45.680;15.702;2024-01-30T03:10:21;-2.40;65.90
57660;DHT22;43485;45.680;15.702;2024-01-30T03:12:47;-2.50;65.70
57660;DHT22;43485;45.680;15.702;2024-01-30T03:15:13;-2.50;65.70
57660;DHT22;43485;45.680;15.702;2024-01-30T03:17:39;-2.60;66.30
57660;DHT22;43485;45.680;15.702;2024-01-30T03:20:06;-2.60;65.80
57660;DHT22;43485;45.680;15.702;2024-01-30T03:22:32;-2.60;65.70
57660;DHT22;43485;45.680;15.702;2024-01-30T03:24:59;-2.60;66.00
57660;DHT22;43485;45.680;15.702;2024-01-30T03:27:25;-2.60;65.90
57660;DHT22;43485;45.680;15.702;2024-01-30T03:29:51;-2.60;65.80
57660;DHT22;43485;45.680;15.702;2024-01-30T03:32:17;-2.60;66.10
57660;DHT22;43485;45.680;15.702;2024-01-30T03:34:43;-2.60;66.50
57660;DHT22;43485;45.680;15.702;2024-01-30T03:37:09;-2.70;66.60
57660;DHT22;43485;45.680;15.702;2024-01-30T03:39:35;-2.60;66.60
57660;DHT22;43485;45.680;15.702;2024-01-30T03:42:02;-2.70;66.40
57660;DHT22;43485;45.680;15.702;2024-01-30T03:44:28;-2.70;65.70
57660;DHT22;43485;45.680;15.702;2024-01-30T03:46:54;-2.70;66.20
57660;DHT22;43485;45.680;15.702;2024-01-30T03:49:20;-2.70;66.20
57660;DHT22;43485;45.680;15.702;2024-01-30T03:51:46;-2.70;66.30
57660;DHT22;43485;45.680;15.702;2024-01-30T03:54:13;-2.70;66.60
57660;DHT22;43485;45.680;15.702;2024-01-30T03:56:39;-2.80;66.50
57660;DHT22;43485;45.680;15.702;2024-01-30T03:59:05;-2.80;66.70
57660;DHT22;43485;45.680;15.702;2024-01-30T04:01:31;-2.80;66.70
57660;DHT22;43485;45.680;15.702;2024-01-30T04:03:57;-2.80;66.40
57660;DHT22;43485;45.680;15.702;2024-01-30T04:06:23;-2.90;66.50
57660;DHT22;43485;45.680;15.702;2024-01-30T04:08:49;-2.90;66.70
57660;DHT22;43485;45.680;15.702;2024-01-30T04:11:18;-2.90;66.70
57660;DHT22;43485;45.680;15.702;2024-01-30T04:13:48;-3.00;66.30
57660;DHT22;43485;45.680;15.702;2024-01-30T04:16:32;-3.00;66.70
57660;DHT22;43485;45.680;15.702;2024-01-30T04:18:59;-3.00;66.60
57660;DHT22;43485;45.680;15.702;2024-01-30T04:21:25;-3.10;66.30
57660;DHT22;43485;45.680;15.702;2024-01-30T04:23:51;-3.00;66.50
57660;DHT22;43485;45.680;15.702;2024-01-30T04:26:17;-3.10;65.80
57660;DHT22;43485;45.680;15.702;2024-01-30T04:28:44;-3.00;66.30
57660;DHT22;43485;45.680;15.702;2024-01-30T04:31:11;-3.10;66.40
57660;DHT22;43485;45.680;15.702;2024-01-30T04:33:37;-3.10;65.80
57660;DHT22;43485;45.680;15.702;2024-01-30T04:36:03;-3.10;66.40
57660;DHT22;43485;45.680;15.702;2024-01-30T04:38:31;-3.10;66.40
57660;DHT22;43485;45.680;15.702;2024-01-30T04:40:57;-3.10;66.20
57660;DHT22;43485;45.680;15.702;2024-01-30T04:43:23;-3.10;66.30
57660;DHT22;43485;45.680;15.702;2024-01-30T04:45:49;-3.10;66.40
57660;DHT22;43485;45.680;15.702;2024-01-30T04:48:16;-3.10;65.80
57660;DHT22;43485;45.680;15.702;2024-01-30T04:50:42;-3.10;66.30
57660;DHT22;43485;45.680;15.702;2024-01-30T04:53:08;-3.10;66.20
57660;DHT22;43485;45.680;15.702;2024-01-30T04:55:35;-3.20;66.20
57660;DHT22;43485;45.680;15.702;2024-01-30T04:58:02;-3.20;66.60
57660;DHT22;43485;45.680;15.702;2024-01-30T05:00:28;-3.30;66.20
57660;DHT22;43485;45.680;15.702;2024-01-30T05:03:13;-3.20;66.60
57660;DHT22;43485;45.680;15.702;2024-01-30T05:05:39;-3.20;66.70
57660;DHT22;43485;45.680;15.702;2024-01-30T05:08:05;-3.20;66.70
57660;DHT22;43485;45.680;15.702;2024-01-30T05:10:31;-3.30;65.90
57660;DHT22;43485;45.680;15.702;2024-01-30T05:12:57;-3.20;66.40
57660;DHT22;43485;45.680;15.702;2024-01-30T05:15:23;-3.30;66.40
57660;DHT22;43485;45.680;15.702;2024-01-30T05:17:49;-3.30;66.70
57660;DHT22;43485;45.680;15.702;2024-01-30T05:20:16;-3.30;67.80
57660;DHT22;43485;45.680;15.702;2024-01-30T05:22:43;-3.20;66.70
57660;DHT22;43485;45.680;15.702;2024-01-30T05:25:12;-3.30;67.50
57660;DHT22;43485;45.680;15.702;2024-01-30T05:27:38;-3.30;67.80
57660;DHT22;43485;45.680;15.702;2024-01-30T05:30:06;-3.30;67.80
57660;DHT22;43485;45.680;15.702;2024-01-30T05:32:33;-3.30;67.80
57660;DHT22;43485;45.680;15.702;2024-01-30T05:34:59;-3.30;67.80
57660;DHT22;43485;45.680;15.702;2024-01-30T05:37:25;-3.30;68.30
57660;DHT22;43485;45.680;15.702;2024-01-30T05:39:51;-3.30;68.50
57660;DHT22;43485;45.680;15.702;2024-01-30T05:42:17;-3.30;68.30
57660;DHT22;43485;45.680;15.702;2024-01-30T05:44:43;-3.30;68.30
57660;DHT22;43485;45.680;15.702;2024-01-30T05:47:09;-3.40;68.00
57660;DHT22;43485;45.680;15.702;2024-01-30T05:49:35;-3.40;67.90
57660;DHT22;43485;45.680;15.702;2024-01-30T05:52:03;-3.40;67.80
57660;DHT22;43485;45.680;15.702;2024-01-30T05:54:29;-3.40;67.30
57660;DHT22;43485;45.680;15.702;2024-01-30T05:56:55;-3.30;68.00
57660;DHT22;43485;45.680;15.702;2024-01-30T05:59:21;-3.30;68.10
57660;DHT22;43485;45.680;15.702;2024-01-30T06:01:48;-3.30;68.10
57660;DHT22;43485;45.680;15.702;2024-01-30T06:04:14;-3.40;67.70
57660;DHT22;43485;45.680;15.702;2024-01-30T06:06:40;-3.30;67.80
57660;DHT22;43485;45.680;15.702;2024-01-30T06:09:07;-3.40;67.60
57660;DHT22;43485;45.680;15.702;2024-01-30T06:11:51;-3.40;67.70
57660;DHT22;43485;45.680;15.702;2024-01-30T06:14:18;-3.50;67.80
57660;DHT22;43485;45.680;15.702;2024-01-30T06:16:44;-3.50;68.00
57660;DHT22;43485;45.680;15.702;2024-01-30T06:19:10;-3.50;68.10
57660;DHT22;43485;45.680;15.702;2024-01-30T06:21:36;-3.50;67.90
57660;DHT22;43485;45.680;15.702;2024-01-30T06:24:02;-3.50;67.90
57660;DHT22;43485;45.680;15.702;2024-01-30T06:26:28;-3.60;67.70
57660;DHT22;43485;45.680;15.702;2024-01-30T06:28:54;-3.60;67.70
57660;DHT22;43485;45.680;15.702;2024-01-30T06:31:20;-3.60;67.60
57660;DHT22;43485;45.680;15.702;2024-01-30T06:33:47;-3.60;67.60
57660;DHT22;43485;45.680;15.702;2024-01-30T06:36:13;-3.60;67.60
57660;DHT22;43485;45.680;15.702;2024-01-30T06:38:39;-3.60;67.60
57660;DHT22;43485;45.680;15.702;2024-01-30T06:41:06;-3.60;67.40
57660;DHT22;43485;45.680;15.702;2024-01-30T06:43:32;-3.60;67.30
57660;DHT22;43485;45.680;15.702;2024-01-30T06:45:58;-3.60;67.10
57660;DHT22;43485;45.680;15.702;2024-01-30T06:48:25;-3.60;66.80
57660;DHT22;43485;45.680;15.702;2024-01-30T06:50:53;-3.60;66.30
57660;DHT22;43485;45.680;15.702;2024-01-30T06:53:20;-3.60;66.20
57660;DHT22;43485;45.680;15.702;2024-01-30T06:55:46;-3.70;66.50
57660;DHT22;43485;45.680;15.702;2024-01-30T06:58:12;-3.70;66.40
57660;DHT22;43485;45.680;15.702;2024-01-30T07:00:38;-3.70;66.30
57660;DHT22;43485;45.680;15.702;2024-01-30T07:03:05;-3.70;66.30
57660;DHT22;43485;45.680;15.702;2024-01-30T07:05:32;-3.60;66.40
57660;DHT22;43485;45.680;15.702;2024-01-30T07:07:58;-3.60;67.20
57660;DHT22;43485;45.680;15.702;2024-01-30T07:10:24;-3.60;66.60
57660;DHT22;43485;45.680;15.702;2024-01-30T07:12:50;-3.50;66.60
57660;DHT22;43485;45.680;15.702;2024-01-30T07:15:16;-3.50;66.50
57660;DHT22;43485;45.680;15.702;2024-01-30T07:17:45;-3.50;66.60
57660;DHT22;43485;45.680;15.702;2024-01-30T07:20:11;-3.40;66.70
57660;DHT22;43485;45.680;15.702;2024-01-30T07:22:37;-3.40;66.90
57660;DHT22;43485;45.680;15.702;2024-01-30T07:25:04;-3.30;66.70
57660;DHT22;43485;45.680;15.702;2024-01-30T07:27:30;-3.30;66.70
57660;DHT22;43485;45.680;15.702;2024-01-30T07:29:56;-3.20;67.20
57660;DHT22;43485;45.680;15.702;2024-01-30T07:32:22;-3.20;67.40
57660;DHT22;43485;45.680;15.702;2024-01-30T07:34:49;-3.20;67.30
57660;DHT22;43485;45.680;15.702;2024-01-30T07:37:15;-3.10;67.10
57660;DHT22;43485;45.680;15.702;2024-01-30T07:39:42;-3.00;67.20
57660;DHT22;43485;45.680;15.702;2024-01-30T07:42:08;-2.90;66.90
57660;DHT22;43485;45.680;15.702;2024-01-30T07:44:34;-2.90;66.90
57660;DHT22;43485;45.680;15.702;2024-01-30T07:47:00;-2.80;67.00
57660;DHT22;43485;45.680;15.702;2024-01-30T07:49:26;-2.70;66.90
57660;DHT22;43485;45.680;15.702;2024-01-30T07:51:52;-2.70;66.90
57660;DHT22;43485;45.680;15.702;2024-01-30T07:54:18;-2.60;66.70
57660;DHT22;43485;45.680;15.702;2024-01-30T07:56:45;-2.60;66.60
57660;DHT22;43485;45.680;15.702;2024-01-30T07:59:11;-2.50;66.60
57660;DHT22;43485;45.680;15.702;2024-01-30T08:01:38;-2.40;66.40
57660;DHT22;43485;45.680;15.702;2024-01-30T08:04:04;-2.30;66.20
57660;DHT22;43485;45.680;15.702;2024-01-30T08:06:30;-2.20;66.40
57660;DHT22;43485;45.680;15.702;2024-01-30T08:08:56;-2.10;66.40
57660;DHT22;43485;45.680;15.702;2024-01-30T08:11:23;-2.00;66.40
57660;DHT22;43485;45.680;15.702;2024-01-30T08:13:52;-1.90;66.40
57660;DHT22;43485;45.680;15.702;2024-01-30T08:16:18;-1.80;66.40
57660;DHT22;43485;45.680;15.702;2024-01-30T08:18:44;-1.70;66.80
57660;DHT22;43485;45.680;15.702;2024-01-30T08:21:10;-1.60;66.70
57660;DHT22;43485;45.680;15.702;2024-01-30T08:23:38;-1.50;66.60
57660;DHT22;43485;45.680;15.702;2024-01-30T08:26:05;-1.40;66.40
57660;DHT22;43485;45.680;15.702;2024-01-30T08:28:31;-1.30;66.50
57660;DHT22;43485;45.680;15.702;2024-01-30T08:30:57;-1.20;66.40
57660;DHT22;43485;45.680;15.702;2024-01-30T08:33:23;-1.10;66.40
57660;DHT22;43485;45.680;15.702;2024-01-30T08:35:49;-0.90;66.70
57660;DHT22;43485;45.680;15.702;2024-01-30T08:38:15;-0.80;66.30
57660;DHT22;43485;45.680;15.702;2024-01-30T08:40:41;-0.70;66.30
57660;DHT22;43485;45.680;15.702;2024-01-30T08:43:07;-0.60;66.80
57660;DHT22;43485;45.680;15.702;2024-01-30T08:45:35;-0.40;66.70
57660;DHT22;43485;45.680;15.702;2024-01-30T08:48:01;-0.20;66.40
57660;DHT22;43485;45.680;15.702;2024-01-30T08:50:27;-0.10;66.10
57660;DHT22;43485;45.680;15.702;2024-01-30T08:52:54;0.10;66.20
57660;DHT22;43485;45.680;15.702;2024-01-30T08:55:20;0.20;66.60
57660;DHT22;43485;45.680;15.702;2024-01-30T08:57:46;0.80;66.60
57660;DHT22;43485;45.680;15.702;2024-01-30T09:00:12;1.90;64.10
57660;DHT22;43485;45.680;15.702;2024-01-30T09:02:39;3.00;61.60
57660;DHT22;43485;45.680;15.702;2024-01-30T09:05:05;4.00;58.80
57660;DHT22;43485;45.680;15.702;2024-01-30T09:07:31;5.10;57.40
57660;DHT22;43485;45.680;15.702;2024-01-30T09:09:57;6.10;53.80
57660;DHT22;43485;45.680;15.702;2024-01-30T09:12:23;6.60;52.60
57660;DHT22;43485;45.680;15.702;2024-01-30T09:14:49;7.70;50.20
57660;DHT22;43485;45.680;15.702;2024-01-30T09:17:15;7.80;49.10
57660;DHT22;43485;45.680;15.702;2024-01-30T09:19:41;8.20;47.30
57660;DHT22;43485;45.680;15.702;2024-01-30T09:22:07;7.80;48.20
57660;DHT22;43485;45.680;15.702;2024-01-30T09:24:34;7.40;49.10
57660;DHT22;43485;45.680;15.702;2024-01-30T09:27:00;7.90;47.90
57660;DHT22;43485;45.680;15.702;2024-01-30T09:29:26;8.40;47.10
57660;DHT22;43485;45.680;15.702;2024-01-30T09:31:52;8.40;46.90
57660;DHT22;43485;45.680;15.702;2024-01-30T09:34:18;8.50;45.30
57660;DHT22;43485;45.680;15.702;2024-01-30T09:36:44;8.70;45.30
57660;DHT22;43485;45.680;15.702;2024-01-30T09:39:10;8.80;46.00
57660;DHT22;43485;45.680;15.702;2024-01-30T09:41:45;9.40;44.20
57660;DHT22;43485;45.680;15.702;2024-01-30T09:44:20;10.30;42.40
57660;DHT22;43485;45.680;15.702;2024-01-30T09:46:47;10.60;42.10
57660;DHT22;43485;45.680;15.702;2024-01-30T09:49:13;10.40;41.30
57660;DHT22;43485;45.680;15.702;2024-01-30T09:51:40;9.70;42.10
57660;DHT22;43485;45.680;15.702;2024-01-30T09:54:08;9.20;41.50
57660;DHT22;43485;45.680;15.702;2024-01-30T09:56:35;8.90;43.50
57660;DHT22;43485;45.680;15.702;2024-01-30T09:59:01;9.00;44.10
57660;DHT22;43485;45.680;15.702;2024-01-30T10:01:27;9.00;43.10
57660;DHT22;43485;45.680;15.702;2024-01-30T10:03:53;9.10;43.90
57660;DHT22;43485;45.680;15.702;2024-01-30T10:06:21;8.70;44.10
57660;DHT22;43485;45.680;15.702;2024-01-30T10:08:50;8.30;45.30
57660;DHT22;43485;45.680;15.702;2024-01-30T10:11:16;8.10;45.60
57660;DHT22;43485;45.680;15.702;2024-01-30T10:13:42;8.30;45.90
57660;DHT22;43485;45.680;15.702;2024-01-30T10:16:08;8.70;44.80
57660;DHT22;43485;45.680;15.702;2024-01-30T10:18:34;9.00;44.30
57660;DHT22;43485;45.680;15.702;2024-01-30T10:21:00;9.10;44.10
57660;DHT22;43485;45.680;15.702;2024-01-30T10:23:26;9.50;42.70
57660;DHT22;43485;45.680;15.702;2024-01-30T10:25:52;9.90;42.50
57660;DHT22;43485;45.680;15.702;2024-01-30T10:28:18;9.90;41.80
57660;DHT22;43485;45.680;15.702;2024-01-30T10:30:45;10.30;41.10
57660;DHT22;43485;45.680;15.702;2024-01-30T10:33:11;11.50;38.60
57660;DHT22;43485;45.680;15.702;2024-01-30T10:35:38;11.20;39.20
57660;DHT22;43485;45.680;15.702;2024-01-30T10:38:05;10.90;40.30
57660;DHT22;43485;45.680;15.702;2024-01-30T10:40:33;11.10;39.90
57660;DHT22;43485;45.680;15.702;2024-01-30T10:43:02;11.60;38.70
57660;DHT22;43485;45.680;15.702;2024-01-30T10:45:29;11.40;38.90
57660;DHT22;43485;45.680;15.702;2024-01-30T10:47:58;11.50;38.70
57660;DHT22;43485;45.680;15.702;2024-01-30T10:50:25;12.00;38.20
57660;DHT22;43485;45.680;15.702;2024-01-30T10:52:54;12.60;36.60
57660;DHT22;43485;45.680;15.702;2024-01-30T10:55:22;12.40;36.80
57660;DHT22;43485;45.680;15.702;2024-01-30T10:57:49;12.00;37.30
57660;DHT22;43485;45.680;15.702;2024-01-30T11:00:16;11.70;38.00
57660;DHT22;43485;45.680;15.702;2024-01-30T11:02:44;11.60;37.20
57660;DHT22;43485;45.680;15.702;2024-01-30T11:05:12;11.50;38.00
57660;DHT22;43485;45.680;15.702;2024-01-30T11:07:39;11.30;37.90
57660;DHT22;43485;45.680;15.702;2024-01-30T11:10:07;11.00;38.30
57660;DHT22;43485;45.680;15.702;2024-01-30T11:12:39;11.00;38.50
57660;DHT22;43485;45.680;15.702;2024-01-30T11:15:24;11.60;38.10
57660;DHT22;43485;45.680;15.702;2024-01-30T11:17:52;12.20;37.40
57660;DHT22;43485;45.680;15.702;2024-01-30T11:20:21;12.40;36.40
57660;DHT22;43485;45.680;15.702;2024-01-30T11:22:51;13.20;34.50
57660;DHT22;43485;45.680;15.702;2024-01-30T11:25:20;14.10;33.10
57660;DHT22;43485;45.680;15.702;2024-01-30T11:27:51;15.40;31.10
57660;DHT22;43485;45.680;15.702;2024-01-30T11:30:37;16.10;29.70
57660;DHT22;43485;45.680;15.702;2024-01-30T11:33:06;16.70;29.20
57660;DHT22;43485;45.680;15.702;2024-01-30T11:35:38;17.00;28.80
57660;DHT22;43485;45.680;15.702;2024-01-30T11:38:23;16.90;28.70
57660;DHT22;43485;45.680;15.702;2024-01-30T11:40:52;16.40;29.00
57660;DHT22;43485;45.680;15.702;2024-01-30T11:43:19;16.00;29.50
57660;DHT22;43485;45.680;15.702;2024-01-30T11:45:45;15.90;29.90
57660;DHT22;43485;45.680;15.702;2024-01-30T11:48:12;15.90;29.10
57660;DHT22;43485;45.680;15.702;2024-01-30T11:50:39;16.40;28.90
57660;DHT22;43485;45.680;15.702;2024-01-30T11:53:06;16.70;27.80
57660;DHT22;43485;45.680;15.702;2024-01-30T11:55:33;15.80;28.80
57660;DHT22;43485;45.680;15.702;2024-01-30T11:58:01;15.20;29.30
57660;DHT22;43485;45.680;15.702;2024-01-30T12:00:28;15.70;29.00
57660;DHT22;43485;45.680;15.702;2024-01-30T12:02:56;16.20;28.80
57660;DHT22;43485;45.680;15.702;2024-01-30T12:08:15;17.40;26.50
57660;DHT22;43485;45.680;15.702;2024-01-30T12:10:42;16.70;26.70
57660;DHT22;43485;45.680;15.702;2024-01-30T12:13:08;16.70;27.10
57660;DHT22;43485;45.680;15.702;2024-01-30T12:15:34;16.30;28.10
57660;DHT22;43485;45.680;15.702;2024-01-30T12:18:19;16.90;26.40
57660;DHT22;43485;45.680;15.702;2024-01-30T12:20:45;16.80;26.00
57660;DHT22;43485;45.680;15.702;2024-01-30T12:23:21;16.00;27.60
57660;DHT22;43485;45.680;15.702;2024-01-30T12:25:51;15.10;29.10
57660;DHT22;43485;45.680;15.702;2024-01-30T12:28:18;14.40;29.60
57660;DHT22;43485;45.680;15.702;2024-01-30T12:30:45;14.00;29.90
57660;DHT22;43485;45.680;15.702;2024-01-30T12:33:17;13.90;29.80
57660;DHT22;43485;45.680;15.702;2024-01-30T12:35:47;14.20;30.10
57660;DHT22;43485;45.680;15.702;2024-01-30T12:38:14;14.50;29.80
57660;DHT22;43485;45.680;15.702;2024-01-30T12:40:40;15.50;28.20
57660;DHT22;43485;45.680;15.702;2024-01-30T12:43:06;15.80;27.90
57660;DHT22;43485;45.680;15.702;2024-01-30T12:45:33;15.50;28.00
57660;DHT22;43485;45.680;15.702;2024-01-30T12:47:59;15.20;27.60
57660;DHT22;43485;45.680;15.702;2024-01-30T12:50:26;15.00;28.60
57660;DHT22;43485;45.680;15.702;2024-01-30T12:52:52;15.60;28.10
57660;DHT22;43485;45.680;15.702;2024-01-30T12:55:19;15.70;28.20
57660;DHT22;43485;45.680;15.702;2024-01-30T12:57:46;15.50;28.60
57660;DHT22;43485;45.680;15.702;2024-01-30T13:00:12;16.60;27.90
57660;DHT22;43485;45.680;15.702;2024-01-30T13:02:38;17.10;26.90
57660;DHT22;43485;45.680;15.702;2024-01-30T13:05:04;16.90;26.30
57660;DHT22;43485;45.680;15.702;2024-01-30T13:07:31;16.70;25.40
57660;DHT22;43485;45.680;15.702;2024-01-30T13:09:57;16.30;27.00
57660;DHT22;43485;45.680;15.702;2024-01-30T13:12:42;16.00;27.60
57660;DHT22;43485;45.680;15.702;2024-01-30T13:15:08;15.80;26.90
57660;DHT22;43485;45.680;15.702;2024-01-30T13:17:34;15.80;27.10
57660;DHT22;43485;45.680;15.702;2024-01-30T13:20:01;16.70;26.70
57660;DHT22;43485;45.680;15.702;2024-01-30T13:22:28;18.30;25.10
57660;DHT22;43485;45.680;15.702;2024-01-30T13:24:55;19.80;23.00
57660;DHT22;43485;45.680;15.702;2024-01-30T13:27:21;20.30;22.10
57660;DHT22;43485;45.680;15.702;2024-01-30T13:29:47;20.20;21.80
57660;DHT22;43485;45.680;15.702;2024-01-30T13:32:13;20.10;22.40
57660;DHT22;43485;45.680;15.702;2024-01-30T13:34:39;20.90;21.00
57660;DHT22;43485;45.680;15.702;2024-01-30T13:37:06;22.20;20.10
57660;DHT22;43485;45.680;15.702;2024-01-30T13:39:32;22.80;19.20
57660;DHT22;43485;45.680;15.702;2024-01-30T13:41:58;22.20;18.90
57660;DHT22;43485;45.680;15.702;2024-01-30T13:44:24;21.80;19.10
57660;DHT22;43485;45.680;15.702;2024-01-30T13:46:50;22.00;19.20
57660;DHT22;43485;45.680;15.702;2024-01-30T13:49:16;22.60;19.10
57660;DHT22;43485;45.680;15.702;2024-01-30T13:51:42;23.70;17.90
57660;DHT22;43485;45.680;15.702;2024-01-30T13:54:08;25.50;16.70
57660;DHT22;43485;45.680;15.702;2024-01-30T13:56:34;26.80;15.00
57660;DHT22;43485;45.680;15.702;2024-01-30T13:59:00;27.80;13.80
57660;DHT22;43485;45.680;15.702;2024-01-30T14:01:32;28.00;14.40
57660;DHT22;43485;45.680;15.702;2024-01-30T14:03:58;28.40;13.40
57660;DHT22;43485;45.680;15.702;2024-01-30T14:06:24;28.50;13.50
57660;DHT22;43485;45.680;15.702;2024-01-30T14:08:50;29.30;13.00
57660;DHT22;43485;45.680;15.702;2024-01-30T14:11:16;29.20;12.30
57660;DHT22;43485;45.680;15.702;2024-01-30T14:13:42;28.10;13.20
57660;DHT22;43485;45.680;15.702;2024-01-30T14:16:08;27.40;12.70
57660;DHT22;43485;45.680;15.702;2024-01-30T14:18:34;26.80;12.80
57660;DHT22;43485;45.680;15.702;2024-01-30T14:21:00;25.30;13.90
57660;DHT22;43485;45.680;15.702;2024-01-30T14:23:25;24.30;15.70
57660;DHT22;43485;45.680;15.702;2024-01-30T14:25:51;23.70;15.80
57660;DHT22;43485;45.680;15.702;2024-01-30T14:28:18;23.60;16.50
57660;DHT22;43485;45.680;15.702;2024-01-30T14:30:44;23.10;17.20
57660;DHT22;43485;45.680;15.702;2024-01-30T14:33:10;22.30;17.00
57660;DHT22;43485;45.680;15.702;2024-01-30T14:35:36;21.60;17.70
57660;DHT22;43485;45.680;15.702;2024-01-30T14:38:02;20.40;18.80
57660;DHT22;43485;45.680;15.702;2024-01-30T14:40:30;19.20;19.70
57660;DHT22;43485;45.680;15.702;2024-01-30T14:42:56;18.20;20.10
57660;DHT22;43485;45.680;15.702;2024-01-30T14:45:22;17.70;21.80
57660;DHT22;43485;45.680;15.702;2024-01-30T14:47:48;17.20;21.80
57660;DHT22;43485;45.680;15.702;2024-01-30T14:50:15;16.50;22.10
57660;DHT22;43485;45.680;15.702;2024-01-30T14:52:42;16.90;22.70
57660;DHT22;43485;45.680;15.702;2024-01-30T14:55:08;17.10;21.80
57660;DHT22;43485;45.680;15.702;2024-01-30T14:57:35;16.70;22.40
57660;DHT22;43485;45.680;15.702;2024-01-30T15:00:01;15.80;23.70
57660;DHT22;43485;45.680;15.702;2024-01-30T15:02:28;15.00;24.00
57660;DHT22;43485;45.680;15.702;2024-01-30T15:04:54;14.40;25.30
57660;DHT22;43485;45.680;15.702;2024-01-30T15:07:20;13.90;26.10
57660;DHT22;43485;45.680;15.702;2024-01-30T15:09:46;13.50;27.10
57660;DHT22;43485;45.680;15.702;2024-01-30T15:12:12;13.20;27.10
57660;DHT22;43485;45.680;15.702;2024-01-30T15:14:38;12.90;26.90
57660;DHT22;43485;45.680;15.702;2024-01-30T15:17:04;12.70;27.20
57660;DHT22;43485;45.680;15.702;2024-01-30T15:19:30;12.40;27.20